Time;durP1;ratioP1;P1;durP2;ratioP2;P2;SDS_P1;SDS_P2;PMS_P1;PMS_P2;Temp;Humidity;BMP_temperature;BMP_pressure;BME280_temperature;BME280_humidity;BME280_pressure;Samples;Min_cycle;Max_cycle;Signal;HPM_P1;HPM_P2
2023/04/21 00:00:09;;;;;;;;;;;;;;;10.30;78.45;99898.91;4473829;32;34308;-80
2023/04/21 00:02:38;;;;;;;;;;;;;;;10.38;78.59;99897.56;4464574;32;34387;-80
2023/04/21 00:05:08;;;;;;;;;;;;;;;10.37;77.88;99890.62;4448941;32;33566;-80
2023/04/21 00:07:37;;;;;;;;;;;;;;;10.00;78.88;99888.81;4451426;32;33512;-78
2023/04/21 00:10:05;;;;;;;;;;;;;;;9.91;79.39;99893.56;4468937;32;34725;-79
2023/04/21 00:12:32;;;;;;;;;;;;;;;9.93;80.14;99886.75;4454298;32;34512;-79
2023/04/21 00:15:00;;;;;;;;;;;;;;;10.33;77.98;99887.81;4468580;32;33195;-80
2023/04/21 00:17:27;;;;;;;;;;;;;;;9.91;79.91;99885.81;4452350;32;33682;-79
2023/04/21 00:19:54;;;;;;;;;;;;;;;10.88;75.47;99884.28;4466227;32;34879;-79
2023/04/21 00:22:22;;;;;;;;;;;;;;;10.49;74.93;99879.94;4467082;32;34268;-79
2023/04/21 00:24:49;;;;;;;;;;;;;;;10.33;75.29;99883.50;4466664;32;33664;-81
2023/04/21 00:27:16;;;;;;;;;;;;;;;9.99;77.11;99876.69;4464708;32;33721;-79
2023/04/21 00:29:43;;;;;;;;;;;;;;;9.75;80.48;99883.25;4454816;32;33647;-80
2023/04/21 00:32:11;;;;;;;;;;;;;;;10.38;75.83;99882.03;4455697;32;34403;-78
2023/04/21 00:34:38;;;;;;;;;;;;;;;10.38;75.55;99876.84;4468664;32;33980;-78
2023/04/21 00:37:05;;;;;;;;;;;;;;;9.92;76.96;99882.38;4464788;32;33928;-78
2023/04/21 00:39:33;;;;;;;;;;;;;;;10.01;75.14;99875.06;4468408;32;34012;-79
2023/04/21 00:42:00;;;;;;;;;;;;;;;9.98;74.95;99882.69;4459217;32;34471;-80
2023/04/21 00:44:28;;;;;;;;;;;;;;;10.43;73.61;99882.25;4446105;32;32360;-79
2023/04/21 00:46:56;;;;;;;;;;;;;;;10.51;72.63;99878.31;4468684;32;34016;-81
2023/04/21 00:49:24;;;;;;;;;;;;;;;9.92;75.56;99877.22;4453992;32;32620;-80
2023/04/21 00:51:51;;;;;;;;;;;;;;;9.97;74.57;99873.16;4464347;32;35216;-79
2023/04/21 00:54:20;;;;;;;;;;;;;;;10.87;71.57;99865.22;4467363;32;34083;-80
2023/04/21 00:56:47;;;;;;;;;;;;;;;10.58;70.89;99859.62;4450859;32;33693;-79
2023/04/21 00:59:14;;;;;;;;;;;;;;;11.08;69.26;99862.69;4462736;32;34684;-80
2023/04/21 01:01:43;;;;;;;;;;;;;;;10.26;72.92;99865.91;4465569;32;34560;-79
2023/04/21 01:04:10;;;;;;;;;;;;;;;10.84;70.69;99866.81;4464716;32;33665;-79
2023/04/21 01:06:37;;;;;;;;;;;;;;;10.58;69.91;99869.09;4466310;32;33785;-80
2023/04/21 01:09:05;;;;;;;;;;;;;;;10.29;71.39;99859.97;4465920;32;33727;-78
2023/04/21 01:11:36;;;;;;;;;;;;;;;10.99;68.50;99872.66;4454596;32;34431;-79
2023/04/21 01:14:04;;;;;;;;;;;;;;;10.89;68.64;99862.72;4459449;32;31886;-80
2023/04/21 01:16:32;;;;;;;;;;;;;;;10.15;71.73;99869.66;4453862;32;32055;-78
2023/04/21 01:18:59;;;;;;;;;;;;;;;11.54;67.14;99868.97;4458401;32;34247;-79
2023/04/21 01:21:27;;;;;;;;;;;;;;;10.42;69.62;99862.34;4452492;32;34145;-78
2023/04/21 01:23:55;;;;;;;;;;;;;;;10.20;71.43;99866.50;4435823;32;32986;-79
2023/04/21 01:26:22;;;;;;;;;;;;;;;10.45;71.05;99866.75;4467940;32;34173;-80
2023/04/21 01:28:49;;;;;;;;;;;;;;;10.34;70.97;99862.00;4468380;32;34961;-79
2023/04/21 01:31:17;;;;;;;;;;;;;;;9.89;72.24;99858.97;4465801;32;34507;-79
2023/04/21 01:33:44;;;;;;;;;;;;;;;9.79;73.70;99867.06;4464855;32;33427;-79
2023/04/21 01:36:11;;;;;;;;;;;;;;;9.38;75.58;99868.50;4449227;32;34780;-78
2023/04/21 01:38:39;;;;;;;;;;;;;;;9.30;76.29;99862.06;4465624;32;34929;-78
2023/04/21 01:41:07;;;;;;;;;;;;;;;9.53;74.59;99863.22;4452530;32;34190;-79
2023/04/21 01:43:34;;;;;;;;;;;;;;;9.82;72.97;99862.94;4451054;32;34404;-78
2023/04/21 01:46:03;;;;;;;;;;;;;;;9.91;73.69;99866.78;4464505;32;34768;-80
2023/04/21 01:48:31;;;;;;;;;;;;;;;9.42;75.03;99850.63;4432362;32;33549;-80
2023/04/21 01:50:58;;;;;;;;;;;;;;;9.14;77.17;99856.13;4466463;32;35044;-78
2023/04/21 01:53:26;;;;;;;;;;;;;;;8.98;78.29;99856.13;4452571;32;33482;-79
2023/04/21 01:55:53;;;;;;;;;;;;;;;8.92;78.61;99858.38;4464399;32;34028;-78
2023/04/21 01:58:20;;;;;;;;;;;;;;;8.92;78.47;99867.00;4466846;32;33986;-80
2023/04/21 02:00:48;;;;;;;;;;;;;;;8.95;78.18;99862.03;4440385;32;33546;-79
2023/04/21 02:03:15;;;;;;;;;;;;;;;9.36;76.10;99865.84;4466182;32;33719;-79
2023/04/21 02:05:44;;;;;;;;;;;;;;;9.12;76.46;99865.50;4467359;32;34462;-78
2023/04/21 02:08:12;;;;;;;;;;;;;;;8.79;78.77;99865.50;4455097;32;34642;-78
2023/04/21 02:10:40;;;;;;;;;;;;;;;9.36;75.79;99868.41;4451964;32;32848;-78
2023/04/21 02:13:10;;;;;;;;;;;;;;;8.81;78.14;99871.63;4466739;32;32641;-80
2023/04/21 02:15:38;;;;;;;;;;;;;;;9.09;77.53;99869.59;4443962;32;33910;-78
2023/04/21 02:18:07;;;;;;;;;;;;;;;8.98;76.27;99869.03;4453460;32;35151;-79
2023/04/21 02:20:34;;;;;;;;;;;;;;;8.99;76.40;99869.13;4453381;32;34025;-79
2023/04/21 02:23:02;;;;;;;;;;;;;;;8.96;77.69;99868.06;4453796;32;33561;-78
2023/04/21 02:25:29;;;;;;;;;;;;;;;8.96;75.52;99866.41;4455017;32;35206;-79
2023/04/21 02:27:57;;;;;;;;;;;;;;;8.72;77.87;99868.56;4453024;32;33884;-79
2023/04/21 02:30:25;;;;;;;;;;;;;;;8.50;77.45;99873.38;4457555;32;34349;-79
2023/04/21 02:32:53;;;;;;;;;;;;;;;8.52;78.54;99872.66;4443302;32;34015;-79
2023/04/21 02:35:20;;;;;;;;;;;;;;;8.38;79.49;99865.81;4456176;32;34214;-78
2023/04/21 02:37:49;;;;;;;;;;;;;;;8.44;78.76;99867.09;4428225;32;35579;-79
2023/04/21 02:40:16;;;;;;;;;;;;;;;8.49;79.56;99869.03;4452697;32;34119;-80
2023/04/21 02:42:44;;;;;;;;;;;;;;;8.76;78.15;99873.06;4451496;32;33651;-78
2023/04/21 02:45:11;;;;;;;;;;;;;;;8.90;76.04;99873.81;4452132;32;34695;-79
2023/04/21 02:47:39;;;;;;;;;;;;;;;8.94;74.87;99869.69;4453157;32;34357;-80
2023/04/21 02:50:06;;;;;;;;;;;;;;;8.98;74.48;99872.53;4453188;32;33966;-77
2023/04/21 02:52:37;;;;;;;;;;;;;;;8.95;74.15;99863.72;4452831;32;33526;-80
2023/04/21 02:55:04;;;;;;;;;;;;;;;9.11;73.78;99867.97;4454677;32;34016;-79
2023/04/21 02:57:32;;;;;;;;;;;;;;;9.11;74.19;99867.97;4453405;32;34162;-79
2023/04/21 02:59:59;;;;;;;;;;;;;;;8.99;74.56;99863.06;4453044;32;34406;-79
2023/04/21 03:02:26;;;;;;;;;;;;;;;8.72;75.75;99870.25;4458641;32;33049;-80
2023/04/21 03:04:55;;;;;;;;;;;;;;;8.56;76.71;99871.16;4453225;32;33940;-79
2023/04/21 03:07:22;;;;;;;;;;;;;;;8.45;77.20;99867.97;4464998;32;35099;-79
2023/04/21 03:09:50;;;;;;;;;;;;;;;8.48;76.16;99869.81;4455074;32;33797;-78
2023/04/21 03:12:17;;;;;;;;;;;;;;;9.35;71.61;99878.69;4448446;32;33647;-78
2023/04/21 03:14:44;;;;;;;;;;;;;;;9.25;72.06;99875.66;4460463;32;33816;-78
2023/04/21 03:17:11;;;;;;;;;;;;;;;8.92;73.67;99871.31;4468053;32;34082;-78
2023/04/21 03:19:39;;;;;;;;;;;;;;;8.63;73.87;99876.72;4468639;32;33704;-78
2023/04/21 03:22:06;;;;;;;;;;;;;;;9.38;71.44;99873.66;4468457;32;34415;-79
2023/04/21 03:24:34;;;;;;;;;;;;;;;9.40;71.00;99866.88;4469345;32;32759;-80
2023/04/21 03:27:01;;;;;;;;;;;;;;;10.35;67.54;99868.03;4467695;32;33905;-78
2023/04/21 03:29:29;;;;;;;;;;;;;;;9.93;68.60;99866.06;4468228;32;35045;-80
2023/04/21 03:31:56;;;;;;;;;;;;;;;10.09;67.53;99874.56;4468203;32;32257;-78
2023/04/21 03:34:24;;;;;;;;;;;;;;;10.02;66.19;99870.78;4467697;32;34753;-79
2023/04/21 03:36:51;;;;;;;;;;;;;;;9.77;66.16;99868.69;4452322;32;34235;-80
2023/04/21 03:39:18;;;;;;;;;;;;;;;9.48;66.61;99870.72;4467573;32;35144;-78
2023/04/21 03:41:47;;;;;;;;;;;;;;;10.31;64.23;99871.31;4455461;32;33687;-79
2023/04/21 03:44:14;;;;;;;;;;;;;;;10.35;64.39;99870.63;4467827;32;33996;-79
2023/04/21 03:46:42;;;;;;;;;;;;;;;10.04;64.93;99876.91;4454010;32;34077;-78
2023/04/21 03:49:09;;;;;;;;;;;;;;;9.72;65.58;99880.53;4468543;32;34601;-80
2023/04/21 03:51:37;;;;;;;;;;;;;;;9.93;66.03;99881.59;4468959;32;33561;-78
2023/04/21 03:54:04;;;;;;;;;;;;;;;9.67;66.03;99889.75;4468514;32;33781;-78
2023/04/21 03:56:32;;;;;;;;;;;;;;;10.08;64.75;99880.53;4469348;32;34206;-78
2023/04/21 03:58:59;;;;;;;;;;;;;;;9.67;65.59;99888.06;4465098;32;34698;-79
2023/04/21 04:01:26;;;;;;;;;;;;;;;10.58;62.82;99884.66;4470401;32;33382;-78
2023/04/21 04:03:54;;;;;;;;;;;;;;;10.73;61.23;99880.16;4469141;32;34205;-79
2023/04/21 04:06:22;;;;;;;;;;;;;;;10.93;60.94;99880.16;4453476;32;33310;-81
2023/04/21 04:08:49;;;;;;;;;;;;;;;10.22;63.69;99885.56;4461039;32;33828;-78
2023/04/21 04:11:16;;;;;;;;;;;;;;;10.13;65.25;99894.59;4469167;32;33995;-79
2023/04/21 04:13:43;;;;;;;;;;;;;;;10.20;63.41;99899.25;4470705;32;33595;-80
2023/04/21 04:16:11;;;;;;;;;;;;;;;9.83;64.22;99894.87;4467293;32;34837;-80
2023/04/21 04:18:38;;;;;;;;;;;;;;;9.86;64.40;99900.22;4469884;32;34216;-79
2023/04/21 04:21:06;;;;;;;;;;;;;;;10.19;64.19;99900.06;4468963;32;33641;-78
2023/04/21 04:23:33;;;;;;;;;;;;;;;10.42;62.12;99893.41;4460576;32;35042;-80
2023/04/21 04:26:04;;;;;;;;;;;;;;;10.89;59.97;99905.06;4469913;32;34235;-80
2023/04/21 04:28:32;;;;;;;;;;;;;;;11.18;61.06;99901.19;4469697;32;34285;-77
2023/04/21 04:30:59;;;;;;;;;;;;;;;11.12;60.09;99900.91;4468639;32;32737;-78
2023/04/21 04:33:27;;;;;;;;;;;;;;;11.06;60.08;99911.00;4469207;32;34168;-81
2023/04/21 04:35:54;;;;;;;;;;;;;;;11.78;57.37;99910.63;4458326;32;35755;-78
2023/04/21 04:38:21;;;;;;;;;;;;;;;11.84;59.47;99916.09;4469141;32;35125;-77
2023/04/21 04:40:52;;;;;;;;;;;;;;;11.57;60.13;99913.19;4467556;32;33146;-80
2023/04/21 04:43:20;;;;;;;;;;;;;;;11.29;59.73;99913.72;4462988;32;33821;-79
2023/04/21 04:45:47;;;;;;;;;;;;;;;11.24;60.87;99915.22;4453049;32;33988;-78
2023/04/21 04:48:15;;;;;;;;;;;;;;;11.05;61.36;99917.03;4468174;32;33966;-77
2023/04/21 04:50:42;;;;;;;;;;;;;;;10.97;61.60;99915.78;4453592;32;31396;-77
2023/04/21 04:53:09;;;;;;;;;;;;;;;11.34;59.88;99917.44;4468238;32;34912;-78
2023/04/21 04:55:37;;;;;;;;;;;;;;;11.71;59.28;99913.81;4455864;32;33496;-76
2023/04/21 04:58:04;;;;;;;;;;;;;;;11.27;58.79;99915.38;4468581;32;34223;-77
2023/04/21 05:00:32;;;;;;;;;;;;;;;11.99;57.09;99910.66;4468391;32;33666;-77
2023/04/21 05:02:59;;;;;;;;;;;;;;;12.17;56.64;99915.72;4468819;32;33849;-77
2023/04/21 05:05:27;;;;;;;;;;;;;;;12.27;56.11;99917.84;4466520;32;33902;-78
2023/04/21 05:07:54;;;;;;;;;;;;;;;12.18;58.38;99912.28;4463951;32;34268;-77
2023/04/21 05:10:22;;;;;;;;;;;;;;;12.54;55.74;99906.78;4466591;32;33571;-76
2023/04/21 05:12:49;;;;;;;;;;;;;;;12.65;53.83;99910.69;4452660;32;32382;-77
2023/04/21 05:15:17;;;;;;;;;;;;;;;12.67;56.54;99903.81;4460812;32;33789;-76
2023/04/21 05:17:44;;;;;;;;;;;;;;;12.77;53.07;99905.94;4453376;32;34245;-78
2023/04/21 05:20:12;;;;;;;;;;;;;;;12.87;52.87;99906.28;4457211;32;34080;-76
2023/04/21 05:22:39;;;;;;;;;;;;;;;12.97;51.30;99908.38;4441071;32;34179;-79
2023/04/21 05:25:08;;;;;;;;;;;;;;;13.43;50.10;99907.47;4456405;32;34041;-79
2023/04/21 05:27:36;;;;;;;;;;;;;;;13.34;51.57;99904.53;4463888;32;34891;-77
2023/04/21 05:30:03;;;;;;;;;;;;;;;13.57;51.41;99908.81;4449244;32;33168;-78
2023/04/21 05:32:30;;;;;;;;;;;;;;;13.60;50.91;99907.16;4453326;32;34145;-79
2023/04/21 05:34:59;;;;;;;;;;;;;;;13.74;50.12;99911.13;4449556;32;34193;-76
2023/04/21 05:37:26;;;;;;;;;;;;;;;13.80;49.44;99906.12;4445536;32;34817;-79
2023/04/21 05:39:53;;;;;;;;;;;;;;;14.07;48.38;99910.47;4448862;32;33388;-78
2023/04/21 05:42:21;;;;;;;;;;;;;;;14.47;48.10;99906.53;4453558;32;33566;-77
2023/04/21 05:44:48;;;;;;;;;;;;;;;13.60;50.13;99907.16;4437847;32;34961;-79
2023/04/21 05:47:15;;;;;;;;;;;;;;;13.48;49.47;99913.72;4452890;32;34344;-78
2023/04/21 05:49:48;;;;;;;;;;;;;;;13.61;49.02;99916.75;4454936;32;33507;-79
2023/04/21 05:52:16;;;;;;;;;;;;;;;13.91;48.79;99912.56;4452391;32;32624;-80
2023/04/21 05:54:44;;;;;;;;;;;;;;;13.70;48.79;99919.66;4454563;32;33841;-79
2023/04/21 05:57:11;;;;;;;;;;;;;;;14.20;47.75;99917.84;4454672;32;34359;-79
2023/04/21 05:59:38;;;;;;;;;;;;;;;13.77;49.05;99921.62;4462832;32;33320;-78
2023/04/21 06:02:06;;;;;;;;;;;;;;;14.25;46.72;99917.97;4458412;32;34130;-77
2023/04/21 06:04:33;;;;;;;;;;;;;;;14.29;47.26;99925.97;4454990;32;33865;-77
2023/04/21 06:07:05;;;;;;;;;;;;;;;14.03;47.64;99913.81;4455911;32;34373;-76
2023/04/21 06:09:34;;;;;;;;;;;;;;;14.19;47.65;99926.47;4455425;32;33013;-79
2023/04/21 06:12:01;;;;;;;;;;;;;;;14.44;46.20;99922.06;4457683;32;34368;-79
2023/04/21 06:14:29;;;;;;;;;;;;;;;14.52;46.43;99920.56;4470836;32;34698;-77
2023/04/21 06:16:56;;;;;;;;;;;;;;;14.20;46.92;99923.06;4457815;32;34545;-77
2023/04/21 06:19:23;;;;;;;;;;;;;;;14.58;45.82;99920.78;4478945;32;34166;-77
2023/04/21 06:21:51;;;;;;;;;;;;;;;14.35;46.34;99917.41;4475740;32;34517;-76
2023/04/21 06:24:23;;;;;;;;;;;;;;;14.31;46.28;99921.69;4460965;32;33775;-78
2023/04/21 06:26:52;;;;;;;;;;;;;;;14.11;47.07;99920.13;4477991;32;34878;-79
2023/04/21 06:29:19;;;;;;;;;;;;;;;14.53;46.16;99922.34;4458286;32;33482;-79
2023/04/21 06:31:47;;;;;;;;;;;;;;;14.24;46.78;99914.50;4471506;32;34915;-80
2023/04/21 06:34:15;;;;;;;;;;;;;;;14.19;47.08;99925.59;4458980;32;35105;-79
2023/04/21 06:36:42;;;;;;;;;;;;;;;14.35;46.08;99923.53;4464424;32;34460;-78
2023/04/21 06:39:09;;;;;;;;;;;;;;;14.61;45.55;99912.19;4459689;32;33717;-81
2023/04/21 06:41:36;;;;;;;;;;;;;;;15.06;46.56;99909.13;4461731;32;33872;-79
2023/04/21 06:44:04;;;;;;;;;;;;;;;14.36;47.14;99920.06;4452965;32;33394;-77
2023/04/21 06:46:31;;;;;;;;;;;;;;;14.72;45.89;99911.66;4463591;32;35119;-78
2023/04/21 06:48:58;;;;;;;;;;;;;;;14.74;46.48;99909.97;4480058;32;33952;-76
2023/04/21 06:51:26;;;;;;;;;;;;;;;14.62;46.34;99917.44;4469884;32;34039;-79
2023/04/21 06:53:53;;;;;;;;;;;;;;;14.62;46.56;99912.22;4470357;32;34534;-77
2023/04/21 06:56:20;;;;;;;;;;;;;;;14.82;45.68;99919.75;4462568;32;33800;-78
2023/04/21 06:58:48;;;;;;;;;;;;;;;14.99;45.25;99908.09;4474011;32;34359;-76
2023/04/21 07:01:15;;;;;;;;;;;;;;;14.91;45.28;99910.47;4463563;32;34371;-77
2023/04/21 07:03:43;;;;;;;;;;;;;;;15.41;44.68;99915.31;4472289;32;34618;-78
2023/04/21 07:06:11;;;;;;;;;;;;;;;15.53;44.36;99913.06;4471173;32;35115;-76
2023/04/21 07:08:38;;;;;;;;;;;;;;;15.61;43.47;99909.78;4456490;32;33964;-76
2023/04/21 07:11:05;;;;;;;;;;;;;;;15.32;43.40;99910.75;4476368;32;33692;-79
2023/04/21 07:13:32;;;;;;;;;;;;;;;15.73;42.96;99915.34;4460795;32;33865;-77
2023/04/21 07:16:00;;;;;;;;;;;;;;;15.65;43.81;99909.87;4456627;32;33876;-77
2023/04/21 07:18:27;;;;;;;;;;;;;;;15.99;43.31;99907.25;4469358;32;34335;-78
2023/04/21 07:20:55;;;;;;;;;;;;;;;15.73;42.65;99912.72;4470129;32;33802;-78
2023/04/21 07:23:22;;;;;;;;;;;;;;;15.82;42.60;99905.12;4468067;32;33993;-76
2023/04/21 07:25:50;;;;;;;;;;;;;;;16.06;42.37;99909.19;4466526;32;34509;-78
2023/04/21 07:28:18;;;;;;;;;;;;;;;16.03;42.49;99909.09;4468362;32;33335;-78
2023/04/21 07:30:45;;;;;;;;;;;;;;;16.12;41.90;99914.56;4469186;32;33405;-78
2023/04/21 07:33:12;;;;;;;;;;;;;;;16.20;41.62;99910.37;4448462;32;34115;-77
2023/04/21 07:35:40;;;;;;;;;;;;;;;16.38;42.27;99898.59;4451508;32;33778;-78
2023/04/21 07:38:07;;;;;;;;;;;;;;;16.83;41.06;99910.97;4465390;32;34195;-78
2023/04/21 07:40:34;;;;;;;;;;;;;;;18.15;38.30;99907.31;4459670;32;34551;-78
2023/04/21 07:43:02;;;;;;;;;;;;;;;19.07;36.03;99900.75;4458183;32;33390;-77
2023/04/21 07:45:29;;;;;;;;;;;;;;;20.78;33.98;99894.34;4462592;32;34254;-77
2023/04/21 07:47:57;;;;;;;;;;;;;;;21.28;32.73;99898.91;4470001;32;34401;-77
2023/04/21 07:50:25;;;;;;;;;;;;;;;21.41;31.82;99900.69;4467623;32;34307;-79
2023/04/21 07:52:52;;;;;;;;;;;;;;;22.82;30.09;99898.91;4459196;32;34535;-77
2023/04/21 07:55:19;;;;;;;;;;;;;;;23.92;28.03;99899.22;4464611;32;34700;-79
2023/04/21 07:57:47;;;;;;;;;;;;;;;25.32;27.03;99892.44;4470262;32;34415;-77
2023/04/21 08:00:15;;;;;;;;;;;;;;;24.48;26.87;99881.91;4457580;32;33325;-79
2023/04/21 08:02:42;;;;;;;;;;;;;;;24.75;26.63;99889.63;4469988;32;34952;-79
2023/04/21 08:05:10;;;;;;;;;;;;;;;24.16;27.73;99895.47;4463922;32;34363;-80
2023/04/21 08:07:38;;;;;;;;;;;;;;;25.29;26.13;99888.06;4450090;32;33615;-78
2023/04/21 08:10:06;;;;;;;;;;;;;;;25.66;25.83;99887.50;4469336;32;34181;-77
2023/04/21 08:12:33;;;;;;;;;;;;;;;26.18;24.62;99890.22;4468940;32;34255;-79
2023/04/21 08:15:04;;;;;;;9.27;2.95;;;;;;;26.01;25.11;99891.38;4469233;32;34135;-78
2023/04/21 08:17:32;;;;;;;;;;;;;;;26.75;24.67;99887.37;4469657;32;33300;-78
2023/04/21 08:20:00;;;;;;;;;;;;;;;27.08;23.70;99887.59;4468266;32;34165;-78
2023/04/21 08:22:27;;;;;;;;;;;;;;;25.60;24.85;99895.56;4468542;32;33708;-79
2023/04/21 08:24:55;;;;;;;;;;;;;;;25.56;24.82;99891.19;4468074;32;34488;-78
2023/04/21 08:27:23;;;;;;;;;;;;;;;25.73;25.33;99898.00;4460397;32;33466;-78
2023/04/21 08:29:50;;;;;;;9.20;2.50;;;;;;;25.68;25.05;99891.00;4456381;32;33623;-78
2023/04/21 08:32:25;;;;;;;11.70;3.00;;;;;;;24.68;25.97;99894.09;4467765;32;33847;-80
2023/04/21 08:34:53;;;;;;;8.90;2.80;;;;;;;23.12;27.76;99891.78;4469350;32;34413;-78
2023/04/21 08:37:21;;;;;;;8.75;2.78;;;;;;;23.18;27.44;99891.75;4467968;32;34554;-79
2023/04/21 08:39:52;;;;;;;9.02;2.62;;;;;;;23.75;27.73;99896.69;4464798;32;33827;-79
2023/04/21 08:42:20;;;;;;;11.70;2.62;;;;;;;24.27;26.75;99887.44;4465509;32;34338;-78
2023/04/21 08:44:47;;;;;;;10.48;2.87;;;;;;;24.30;26.37;99883.00;4455255;32;34715;-77
2023/04/21 08:47:15;;;;;;;11.57;3.20;;;;;;;23.20;27.88;99891.72;4446791;32;33001;-78
2023/04/21 08:49:44;;;;;;;10.20;3.10;;;;;;;22.34;28.67;99882.34;4461793;32;34578;-79
2023/04/21 08:52:13;;;;;;;9.88;2.90;;;;;;;22.08;28.67;99883.22;4467086;32;33684;-78
2023/04/21 08:54:40;;;;;;;10.05;3.15;;;;;;;22.82;29.55;99883.06;4467370;32;34645;-76
2023/04/21 08:57:08;;;;;;;13.18;3.33;;;;;;;22.65;28.43;99874.34;4467616;32;33419;-79
2023/04/21 08:59:43;;;;;;;9.37;2.90;;;;;;;22.24;28.03;99877.94;4467672;32;34052;-77
2023/04/21 09:02:14;;;;;;;11.63;3.30;;;;;;;22.67;28.07;99880.50;4466817;32;32420;-77
2023/04/21 09:04:50;;;;;;;13.33;3.20;;;;;;;21.91;29.26;99879.72;4455929;32;33812;-77
2023/04/21 09:07:33;;;;;;;11.93;3.23;;;;;;;21.66;30.90;99874.44;4431211;32;823564;-77
2023/04/21 09:10:00;;;;;;;9.48;3.20;;;;;;;22.16;30.11;99880.56;4466663;32;33706;-77
2023/04/21 09:12:28;;;;;;;12.15;3.30;;;;;;;22.30;28.12;99872.66;4449557;32;33566;-79
2023/04/21 09:14:57;;;;;;;13.07;3.10;;;;;;;21.62;29.83;99879.72;4467537;32;34576;-78
2023/04/21 09:17:31;;;;;;;10.40;3.00;;;;;;;22.18;29.03;99874.41;4463531;32;33271;-78
2023/04/21 09:20:13;;;;;;;11.60;3.70;;;;;;;21.67;29.79;99875.28;4467814;32;33177;-77
2023/04/21 09:22:41;;;;;;;10.63;3.10;;;;;;;21.75;30.28;99868.25;4454876;32;32517;-78
2023/04/21 09:25:08;;;;;;;11.57;3.50;;;;;;;22.01;30.49;99870.91;4448438;32;32997;-78
2023/04/21 09:27:36;;;;;;;11.15;3.67;;;;;;;22.04;29.86;99875.28;4459962;32;33332;-79
2023/04/21 09:30:06;;;;;;;13.13;3.73;;;;;;;22.13;28.62;99870.87;4467510;32;34022;-76
2023/04/21 09:32:40;;;;;;;11.60;3.50;;;;;;;22.49;28.82;99861.19;4467369;32;33331;-77
2023/04/21 09:35:11;;;;;;;9.50;3.70;;;;;;;22.28;28.59;99863.87;4467831;32;33682;-78
2023/04/21 09:37:42;;;;;;;11.23;3.53;;;;;;;22.23;28.52;99857.69;4467309;32;33315;-77
2023/04/21 09:40:13;;;;;;;11.50;3.85;;;;;;;22.30;30.37;99857.72;4467334;32;33575;-77
2023/04/21 09:42:41;;;;;;;8.13;3.70;;;;;;;22.45;29.35;99848.87;4453861;32;32109;-78
2023/04/21 09:45:13;;;;;;;10.20;4.03;;;;;;;22.02;29.46;99859.50;4462338;32;33783;-77
2023/04/21 09:47:49;;;;;;;13.95;3.80;;;;;;;22.34;28.80;99853.31;4467197;32;32891;-76
2023/04/21 09:50:21;;;;;;;11.65;4.12;;;;;;;22.72;27.78;99844.41;4466957;32;33381;-77
2023/04/21 09:53:14;;;;;;;11.82;4.28;;;;;;;23.07;28.81;99846.03;4466866;32;33168;-78
2023/04/21 09:55:42;;;;;;;9.77;3.83;;;;;;;23.30;26.56;99837.97;4461637;32;33739;-78
2023/04/21 09:58:11;;;;;;;9.85;4.00;;;;;;;23.53;28.95;99840.44;4466728;32;34939;-78
2023/04/21 10:00:39;;;;;;;8.15;4.10;;;;;;;23.27;28.51;99844.12;4465239;32;33665;-77
2023/04/21 10:03:10;;;;;;;9.88;3.90;;;;;;;23.81;27.69;99840.25;4465815;32;34239;-77
2023/04/21 10:05:38;;;;;;;7.87;3.92;;;;;;;23.41;26.87;99840.50;4458999;32;32861;-77
2023/04/21 10:08:10;;;;;;;11.45;4.30;;;;;;;23.05;27.76;99838.09;4464077;32;33169;-78
2023/04/21 10:10:38;;;;;;;9.65;4.05;;;;;;;23.07;27.92;99835.44;4453223;32;34134;-77
2023/04/21 10:13:06;;;;;;;11.05;4.37;;;;;;;22.50;28.38;99833.91;4466552;32;34584;-78
2023/04/21 10:15:38;;;;;;;8.30;4.40;;;;;;;21.97;29.02;99833.09;4466349;32;33554;-78
2023/04/21 10:18:18;;;;;;;10.85;4.40;;;;;;;21.92;29.08;99841.91;4466501;32;33061;-77
2023/04/21 10:21:08;;;;;;;9.13;4.10;;;;;;;22.09;29.32;99841.87;4455150;32;32470;-77
2023/04/21 10:23:42;;;;;;;11.35;4.30;;;;;;;21.75;29.70;99831.34;4458546;32;32999;-79
2023/04/21 10:26:33;;;;;;;9.90;4.50;;;;;;;21.96;29.48;99817.28;4466199;32;33512;-78
2023/04/21 10:29:03;;;;;;;10.37;4.43;;;;;;;21.79;29.44;99828.72;4458374;32;32771;-77
2023/04/21 10:31:35;;;;;;;9.07;4.32;;;;;;;21.55;29.46;99829.59;4466041;32;33621;-77
2023/04/21 10:34:08;;;;;;;8.38;4.50;;;;;;;21.85;30.02;99821.72;4466105;32;33605;-77
2023/04/21 10:36:50;;;;;;;8.98;4.43;;;;;;;22.10;30.04;99818.16;4441944;32;34116;-78
2023/04/21 10:39:24;;;;;;;12.25;4.57;;;;;;;23.14;28.13;99813.38;4468455;32;33530;-78
2023/04/21 10:41:57;;;;;;;10.00;4.12;;;;;;;22.90;28.23;99817.87;4467884;32;34164;-77
2023/04/21 10:44:27;;;;;;;12.40;4.37;;;;;;;23.51;27.04;99815.78;4468687;32;33416;-78
2023/04/21 10:46:57;;;;;;;9.13;4.15;;;;;;;24.06;26.57;99814.44;4468378;32;34241;-78
2023/04/21 10:49:31;;;;;;;10.43;4.10;;;;;;;24.09;26.57;99802.06;4468537;32;32921;-78
2023/04/21 10:51:59;;;;;;;10.93;4.65;;;;;;;24.31;25.80;99794.75;4467634;32;33378;-78
2023/04/21 10:54:30;;;;;;;10.15;4.20;;;;;;;23.92;26.75;99796.06;4467841;32;33402;-77
2023/04/21 10:56:58;;;;;;;10.30;4.15;;;;;;;24.20;26.26;99785.16;4454165;32;33685;-78
2023/04/21 10:59:26;;;;;;;11.10;4.93;;;;;;;24.32;26.60;99791.22;4440505;32;33851;-80
2023/04/21 11:01:53;;;;;;;9.98;4.25;;;;;;;24.28;25.08;99789.50;4468001;32;34485;-78
2023/04/21 11:04:21;;;;;;;9.97;4.47;;;;;;;24.50;26.61;99790.09;4462503;32;34648;-79
2023/04/21 11:07:06;;;;;;;10.32;4.60;;;;;;;24.71;26.12;99793.41;4453827;32;32502;-81
2023/04/21 11:09:35;;;;;;;11.40;4.68;;;;;;;25.14;25.17;99787.50;4468183;32;33552;-78
2023/04/21 11:12:06;;;;;;;10.40;4.87;;;;;;;24.42;26.43;99786.69;4468217;32;33482;-79
2023/04/21 11:14:35;;;;;;;9.63;4.40;;;;;;;24.28;26.11;99788.59;4438375;32;33082;-79
2023/04/21 11:17:05;;;;;;;9.57;4.40;;;;;;;24.37;27.21;99783.19;4452037;32;34983;-75
2023/04/21 11:19:32;;;;;;;8.48;4.32;;;;;;;24.27;25.96;99786.88;4452003;32;33428;-77
2023/04/21 11:22:00;;;;;;;10.25;4.20;;;;;;;24.58;26.89;99782.09;4452555;32;33712;-77
2023/04/21 11:24:27;;;;;;;7.12;4.18;;;;;;;24.61;27.09;99771.47;4452580;32;33985;-77
2023/04/21 11:26:55;;;;;;;10.20;4.22;;;;;;;24.63;26.85;99776.75;4450586;32;34315;-77
2023/04/21 11:29:23;;;;;;;9.05;4.50;;;;;;;24.58;26.33;99776.81;4451510;32;33019;-78
2023/04/21 11:31:52;;;;;;;10.88;4.65;;;;;;;24.94;25.25;99779.84;4450756;32;34071;-78
2023/04/21 11:34:20;;;;;;;8.85;4.47;;;;;;;24.39;25.87;99781.41;4437967;32;33507;-79
2023/04/21 11:36:48;;;;;;;11.95;4.78;;;;;;;24.38;26.15;99774.38;4442310;32;33686;-79
2023/04/21 11:39:18;;;;;;;11.82;4.97;;;;;;;24.25;26.21;99780.72;4431351;32;33344;-79
2023/04/21 11:41:49;;;;;;;11.43;5.00;;;;;;;23.98;26.96;99773.94;4442656;32;33461;-77
2023/04/21 11:44:30;;;;;;;9.73;4.57;;;;;;;23.85;27.16;99773.19;4442621;32;33844;-74
2023/04/21 11:46:58;;;;;;;9.48;5.22;;;;;;;23.49;27.65;99776.12;4448573;32;33104;-78
2023/04/21 11:49:30;;;;;;;11.15;4.80;;;;;;;23.10;27.72;99772.91;4451142;32;34151;-77
2023/04/21 11:51:58;;;;;;;11.12;5.20;;;;;;;23.42;27.24;99776.19;4450889;32;33292;-76
2023/04/21 11:54:28;;;;;;;9.95;5.12;;;;;;;23.50;26.71;99777.00;4451594;32;33891;-76
2023/04/21 11:56:55;;;;;;;10.80;5.03;;;;;;;22.60;28.30;99770.50;4450821;32;34425;-78
2023/04/21 11:59:25;;;;;;;11.57;5.10;;;;;;;23.47;26.85;99771.72;4450900;32;34438;-78
2023/04/21 12:01:53;;;;;;;8.50;4.85;;;;;;;23.11;27.68;99768.50;4433190;32;32151;-77
2023/04/21 12:04:23;;;;;;;9.65;4.95;;;;;;;22.94;27.75;99766.78;4451052;32;33208;-78
2023/04/21 12:06:58;;;;;;;9.18;4.90;;;;;;;22.93;27.84;99772.97;4443958;32;34050;-79
2023/04/21 12:09:26;;;;;;;12.20;5.07;;;;;;;23.26;28.52;99771.03;4455672;32;32177;-79
2023/04/21 12:12:00;;;;;;;7.95;4.85;;;;;;;22.85;27.98;99772.16;4449867;32;35565;-78
2023/04/21 12:14:28;;;;;;;7.87;4.30;;;;;;;22.45;27.95;99766.19;4444978;32;32713;-77
2023/04/21 12:16:57;;;;;;;9.70;5.03;;;;;;;22.47;28.29;99767.06;4449971;32;34509;-80
2023/04/21 12:19:38;;;;;;;8.43;4.97;;;;;;;21.61;28.86;99760.19;4450633;32;33029;-78
2023/04/21 12:22:10;;;;;;;9.80;4.70;;;;;;;21.67;30.05;99754.94;4448087;32;33035;-78
2023/04/21 12:24:38;;;;;;;11.43;5.30;;;;;;;21.78;29.24;99750.50;4438407;32;33463;-79
2023/04/21 12:27:07;;;;;;;11.52;4.97;;;;;;;21.41;30.50;99747.88;4449696;32;33590;-79